Time;durP1;ratioP1;P1;durP2;ratioP2;P2;SDS_P1;SDS_P2;PMS_P1;PMS_P2;Temp;Humidity;BMP_temperature;BMP_pressure;BME280_temperature;BME280_humidity;BME280_pressure;Samples;Min_cycle;Max_cycle;Signal;HPM_P1;HPM_P2
2022/10/31 00:01:10;;;;;;;31.02;16.00;;;8.70;99.90;;;;;;4990155;28;20073;-48
2022/10/31 00:03:35;;;;;;;23.08;15.05;;;8.70;99.90;;;;;;4972042;28;20515;-54
2022/10/31 00:06:01;;;;;;;24.48;14.98;;;8.60;99.90;;;;;;4986501;28;20030;-53
2022/10/31 00:08:27;;;;;;;29.95;18.80;;;8.60;99.90;;;;;;5009933;28;20449;-51
2022/10/31 00:10:52;;;;;;;27.48;17.00;;;8.50;99.90;;;;;;4989994;28;20096;-49
2022/10/31 00:13:18;;;;;;;31.20;17.73;;;8.60;99.90;;;;;;5008363;28;20044;-50
2022/10/31 00:15:43;;;;;;;34.70;17.52;;;8.50;99.90;;;;;;4989989;28;20070;-50
2022/10/31 00:18:09;;;;;;;24.88;15.75;;;8.60;99.90;;;;;;5009915;28;20072;-49
2022/10/31 00:20:36;;;;;;;25.40;15.93;;;8.50;99.90;;;;;;4989755;28;20062;-48
2022/10/31 00:23:02;;;;;;;22.92;15.40;;;8.50;99.90;;;;;;5009879;28;20560;-53
2022/10/31 00:25:28;;;;;;;30.90;18.58;;;8.50;99.90;;;;;;4999833;28;20030;-49
2022/10/31 00:27:54;;;;;;;29.95;16.67;;;8.50;99.90;;;;;;4991307;28;20045;-48
2022/10/31 00:30:20;;;;;;;27.95;17.70;;;8.50;99.90;;;;;;5007709;28;20432;-54
2022/10/31 00:32:46;;;;;;;32.38;16.63;;;8.50;99.90;;;;;;4991345;28;20046;-51
2022/10/31 00:35:11;;;;;;;30.45;18.35;;;8.50;99.90;;;;;;5007740;28;20033;-53
2022/10/31 00:37:37;;;;;;;29.65;17.48;;;8.50;99.90;;;;;;4990165;28;20072;-47
2022/10/31 00:40:03;;;;;;;35.50;20.25;;;8.40;99.90;;;;;;5007545;28;20088;-54
2022/10/31 00:42:28;;;;;;;32.65;17.95;;;8.40;99.90;;;;;;5010137;28;20105;-50
2022/10/31 00:44:54;;;;;;;26.88;17.88;;;8.40;99.90;;;;;;4995442;28;20092;-49
2022/10/31 00:47:19;;;;;;;28.02;17.05;;;8.40;99.90;;;;;;5010250;28;20037;-51
2022/10/31 00:49:44;;;;;;;28.45;17.10;;;8.40;99.90;;;;;;4993949;28;20599;-52
2022/10/31 00:52:10;;;;;;;22.65;15.00;;;8.30;99.90;;;;;;5009750;28;20034;-50
2022/10/31 00:54:35;;;;;;;27.63;15.20;;;8.30;99.90;;;;;;4992705;28;20112;-51
2022/10/31 00:57:01;;;;;;;30.55;16.65;;;8.30;99.90;;;;;;5010161;28;20026;-50
2022/10/31 00:59:26;;;;;;;27.77;17.00;;;8.30;99.90;;;;;;4991210;28;20113;-55
2022/10/31 01:01:52;;;;;;;34.95;17.17;;;8.30;99.90;;;;;;5009996;28;20044;-51
2022/10/31 01:04:17;;;;;;;31.25;15.93;;;8.30;99.90;;;;;;4989711;28;20042;-49
2022/10/31 01:06:43;;;;;;;23.73;15.73;;;8.20;99.90;;;;;;5006992;28;20493;-49
2022/10/31 01:09:08;;;;;;;26.35;16.10;;;8.20;99.90;;;;;;4990509;28;20041;-51
2022/10/31 01:11:34;;;;;;;28.77;16.02;;;8.20;99.90;;;;;;5007842;28;20044;-51
2022/10/31 01:13:59;;;;;;;28.15;16.65;;;8.20;99.90;;;;;;4989111;28;20062;-49
2022/10/31 01:16:26;;;;;;;28.33;16.05;;;8.20;99.90;;;;;;4988757;28;20122;-49
2022/10/31 01:18:52;;;;;;;28.33;16.50;;;8.10;99.90;;;;;;5009133;28;20022;-51
2022/10/31 01:21:21;;;;;;;26.05;16.55;;;8.10;99.90;;;;;;4988486;28;20030;-50
2022/10/31 01:23:46;;;;;;;25.42;15.25;;;8.10;99.90;;;;;;5009081;28;20064;-51
2022/10/31 01:26:18;;;;;;;26.05;16.23;;;8.10;99.90;;;;;;4988680;28;20026;-50
2022/10/31 01:28:49;;;;;;;23.17;14.98;;;8.00;99.90;;;;;;5008785;28;20030;-49
2022/10/31 01:31:17;;;;;;;32.28;17.42;;;8.00;99.90;;;;;;4988167;28;20062;-51
2022/10/31 01:33:42;;;;;;;31.45;16.60;;;8.00;99.90;;;;;;5008577;28;20034;-48
2022/10/31 01:36:22;;;;;;;27.50;16.17;;;8.00;99.90;;;;;;4988377;28;20089;-54
2022/10/31 01:38:49;;;;;;;28.90;15.98;;;8.00;99.90;;;;;;4985405;28;20045;-51
2022/10/31 01:41:18;;;;;;;26.25;16.27;;;8.00;99.90;;;;;;4988252;28;20034;-54
2022/10/31 01:43:48;;;;;;;31.17;17.40;;;8.00;99.90;;;;;;5008723;28;20556;-49
2022/10/31 01:46:17;;;;;;;15.93;12.45;;;8.00;99.90;;;;;;4984822;28;20118;-50
2022/10/31 01:48:42;;;;;;;26.40;14.93;;;7.90;99.90;;;;;;5007109;28;20425;-51
2022/10/31 01:51:10;;;;;;;30.40;16.65;;;7.90;99.90;;;;;;4988226;28;20041;-55
2022/10/31 01:53:36;;;;;;;22.38;14.55;;;7.90;99.90;;;;;;5008178;28;20113;-49
2022/10/31 01:56:02;;;;;;;22.98;14.93;;;7.90;99.90;;;;;;4988221;28;20114;-53
2022/10/31 01:58:30;;;;;;;26.58;15.43;;;7.80;99.90;;;;;;5008015;28;20030;-52
2022/10/31 02:00:58;;;;;;;29.30;16.00;;;7.90;99.90;;;;;;4987399;28;20486;-52
2022/10/31 02:03:25;;;;;;;30.17;16.15;;;7.80;99.90;;;;;;5008490;28;20282;-50
2022/10/31 02:05:54;;;;;;;27.08;16.73;;;7.80;99.90;;;;;;4981584;28;20105;-50
2022/10/31 02:08:31;;;;;;;26.52;16.50;;;7.80;99.90;;;;;;5008315;28;20060;-55
2022/10/31 02:10:58;;;;;;;23.13;15.77;;;7.80;99.90;;;;;;4987347;28;20037;-49
2022/10/31 02:13:24;;;;;;;25.63;16.83;;;7.70;99.90;;;;;;5007888;28;20112;-51
2022/10/31 02:15:53;;;;;;;25.27;15.13;;;7.70;99.90;;;;;;4987983;28;20034;-47
2022/10/31 02:18:20;;;;;;;21.38;14.10;;;7.70;99.90;;;;;;5008297;28;20084;-55
2022/10/31 02:20:57;;;;;;;24.02;14.43;;;7.70;99.90;;;;;;4987654;28;20027;-49
2022/10/31 02:23:25;;;;;;;23.27;14.93;;;7.70;99.90;;;;;;4969457;28;20030;-51
2022/10/31 02:26:32;;;;;;;20.90;14.63;;;7.70;99.90;;;;;;4991578;28;20101;-49
2022/10/31 02:29:26;;;;;;;22.10;14.40;;;7.70;99.90;;;;;;4969397;28;20233;-52
2022/10/31 02:32:13;;;;;;;36.10;15.90;;;7.60;99.90;;;;;;4969576;28;20554;-50
2022/10/31 02:34:56;;;;;;;24.45;13.82;;;7.60;99.90;;;;;;4975221;28;20819;-51
2022/10/31 02:37:42;;;;;;;24.35;14.00;;;7.60;99.90;;;;;;5008691;28;20293;-49
2022/10/31 02:40:17;;;;;;;22.83;15.38;;;7.70;99.90;;;;;;4982677;28;20558;-51
2022/10/31 02:43:04;;;;;;;26.23;13.80;;;7.60;99.90;;;;;;4969508;28;20495;-53
2022/10/31 02:45:33;;;;;;;;;;;7.70;99.90;;;;;;4989271;28;20516;-51
2022/10/31 02:48:07;;;;;;;25.25;14.60;;;7.60;99.90;;;;;;4988611;28;19953;-50
2022/10/31 02:50:37;;;;;;;46.30;16.58;;;7.60;99.90;;;;;;4989807;28;20029;-51
2022/10/31 02:53:03;;;;;;;77.50;19.45;;;7.60;99.90;;;;;;4988540;28;20128;-49
2022/10/31 02:55:28;;;;;;;41.42;17.13;;;7.60;99.90;;;;;;5005874;28;20136;-50
2022/10/31 02:58:07;;;;;;;51.45;18.83;;;7.70;99.90;;;;;;4989076;28;20171;-50
2022/10/31 03:00:45;;;;;;;45.67;18.33;;;7.70;99.90;;;;;;4990119;28;20532;-53
2022/10/31 03:03:21;;;;;;;41.95;17.77;;;7.70;99.90;;;;;;4973250;28;20092;-54
2022/10/31 03:05:47;;;;;;;77.57;20.63;;;7.70;99.90;;;;;;4989991;28;20022;-50
2022/10/31 03:08:26;;;;;;;49.92;18.77;;;7.70;99.90;;;;;;4993083;28;20038;-55
2022/10/31 03:11:06;;;;;;;54.60;17.65;;;7.70;99.90;;;;;;4983674;28;20096;-52
2022/10/31 03:13:46;;;;;;;45.85;17.75;;;7.70;99.90;;;;;;4972692;28;20110;-51
2022/10/31 03:16:16;;;;;;;55.00;18.23;;;7.70;99.90;;;;;;4987621;28;20129;-53
2022/10/31 03:18:47;;;;;;;75.88;19.08;;;7.70;99.90;;;;;;5012065;28;20056;-54
2022/10/31 03:21:21;;;;;;;66.88;18.67;;;7.70;99.90;;;;;;4990938;28;20133;-49
2022/10/31 03:23:50;;;;;;;44.30;17.25;;;7.70;99.90;;;;;;4972766;28;20030;-55
2022/10/31 03:26:16;;;;;;;35.30;16.48;;;7.60;99.90;;;;;;4992408;28;20030;-53
2022/10/31 03:29:02;;;;;;;34.92;16.55;;;7.70;99.90;;;;;;5011096;28;20034;-56
2022/10/31 03:31:35;;;;;;;35.00;16.75;;;7.70;99.90;;;;;;4989395;28;20034;-50
2022/10/31 03:34:02;;;;;;;30.73;16.67;;;7.70;99.90;;;;;;4972590;28;20483;-50
2022/10/31 03:36:30;;;;;;;35.47;17.40;;;7.60;99.90;;;;;;4989964;28;20525;-52
2022/10/31 03:38:58;;;;;;;30.73;17.17;;;7.60;99.90;;;;;;5001684;28;20050;-52
2022/10/31 03:41:28;;;;;;;37.03;17.70;;;7.70;99.90;;;;;;4991266;28;20030;-53
2022/10/31 03:44:16;;;;;;;36.83;18.05;;;7.60;99.90;;;;;;5011289;28;20041;-51
2022/10/31 03:46:42;;;;;;;42.47;16.85;;;7.70;99.90;;;;;;4972156;28;20406;-54
2022/10/31 03:49:08;;;;;;;58.42;18.27;;;7.70;99.90;;;;;;5010132;28;20055;-51
2022/10/31 03:51:43;;;;;;;53.67;18.00;;;7.70;99.90;;;;;;5009295;28;20414;-54
2022/10/31 03:54:16;;;;;;;53.35;17.75;;;7.70;99.90;;;;;;4972364;28;20038;-53
2022/10/31 03:56:51;;;;;;;50.75;18.23;;;7.70;99.90;;;;;;4972290;28;20031;-51
2022/10/31 03:59:40;;;;;;;56.10;20.23;;;7.70;99.90;;;;;;4972384;28;20092;-56
2022/10/31 04:02:09;;;;;;;42.30;17.92;;;7.70;99.90;;;;;;5011212;28;20105;-51
2022/10/31 04:04:36;;;;;;;38.25;16.90;;;7.70;99.90;;;;;;4987091;28;20026;-47
2022/10/31 04:07:05;;;;;;;40.50;17.80;;;7.70;99.90;;;;;;5010802;28;20025;-52
2022/10/31 04:09:33;;;;;;;38.58;17.70;;;7.70;99.90;;;;;;4992438;28;20034;-52
2022/10/31 04:12:00;;;;;;;25.98;15.93;;;7.70;99.90;;;;;;5010687;28;20552;-50
2022/10/31 04:14:29;;;;;;;26.48;14.88;;;7.60;99.90;;;;;;4990582;28;20033;-51
2022/10/31 04:16:55;;;;;;;33.05;15.35;;;7.60;99.90;;;;;;5010567;28;20041;-54
2022/10/31 04:19:20;;;;;;;39.55;16.60;;;7.60;99.90;;;;;;4991504;28;20045;-53
2022/10/31 04:21:46;;;;;;;41.47;16.45;;;7.60;99.90;;;;;;5010411;28;20062;-52
2022/10/31 04:24:11;;;;;;;42.95;16.55;;;7.60;99.90;;;;;;4990275;28;20054;-55
2022/10/31 04:26:37;;;;;;;28.10;15.63;;;7.60;99.90;;;;;;5010558;28;20664;-49
2022/10/31 04:29:03;;;;;;;32.97;15.30;;;7.60;99.90;;;;;;4991668;28;20038;-51
2022/10/31 04:31:28;;;;;;;30.95;14.40;;;7.60;99.90;;;;;;4988861;28;20065;-51
2022/10/31 04:33:54;;;;;;;34.03;14.80;;;7.60;99.90;;;;;;5008364;28;20115;-52
2022/10/31 04:36:19;;;;;;;28.15;14.02;;;7.60;99.90;;;;;;4989389;28;20154;-56
2022/10/31 04:38:45;;;;;;;51.00;16.33;;;7.60;99.90;;;;;;5001748;28;20446;-52
2022/10/31 04:41:10;;;;;;;17.20;12.05;;;7.60;99.90;;;;;;5005453;28;20037;-55
2022/10/31 04:43:36;;;;;;;38.78;14.98;;;7.60;99.90;;;;;;4991040;28;20096;-53
2022/10/31 04:46:02;;;;;;;18.92;12.05;;;7.70;99.90;;;;;;4992665;28;20044;-51
2022/10/31 04:48:27;;;;;;;18.35;11.40;;;7.60;99.90;;;;;;5009521;28;20034;-51
2022/10/31 04:50:57;;;;;;;27.08;13.45;;;7.70;99.90;;;;;;4989476;28;20552;-52
2022/10/31 04:53:23;;;;;;;27.80;14.27;;;7.70;99.90;;;;;;4971147;28;20110;-53
2022/10/31 04:55:48;;;;;;;25.92;13.52;;;7.70;99.90;;;;;;4993292;28;20129;-52
2022/10/31 04:58:14;;;;;;;24.98;13.70;;;7.70;99.90;;;;;;5009448;28;20564;-52
2022/10/31 05:00:39;;;;;;;28.00;14.98;;;7.60;99.90;;;;;;4987739;28;20061;-56
2022/10/31 05:03:05;;;;;;;24.75;13.40;;;7.60;99.90;;;;;;5009031;28;20117;-53
2022/10/31 05:05:31;;;;;;;32.22;15.45;;;7.60;99.90;;;;;;4995117;28;20092;-51
2022/10/31 05:07:57;;;;;;;53.20;14.00;;;7.60;99.90;;;;;;4990571;28;20050;-51
2022/10/31 05:10:25;;;;;;;31.60;15.02;;;7.50;99.90;;;;;;5007448;28;20065;-55
2022/10/31 05:12:56;;;;;;;17.67;11.43;;;7.50;99.90;;;;;;4989879;28;20525;-51
2022/10/31 05:15:23;;;;;;;21.15;13.60;;;7.50;99.90;;;;;;4988377;28;20034;-52
2022/10/31 05:17:49;;;;;;;24.77;14.25;;;7.50;99.90;;;;;;4990246;28;20038;-50
2022/10/31 05:20:16;;;;;;;27.38;14.20;;;7.50;99.90;;;;;;5007202;28;20552;-50
2022/10/31 05:22:51;;;;;;;28.70;14.65;;;7.40;99.90;;;;;;4989909;28;20030;-53
2022/10/31 05:25:18;;;;;;;27.13;14.65;;;7.40;99.90;;;;;;4986458;28;20030;-53
2022/10/31 05:27:45;;;;;;;26.02;14.48;;;7.30;99.90;;;;;;4990224;28;20320;-52
2022/10/31 05:30:13;;;;;;;20.58;13.68;;;7.30;99.90;;;;;;5007498;28;20089;-50
2022/10/31 05:32:44;;;;;;;27.73;13.68;;;7.30;99.90;;;;;;4989765;28;20342;-50
2022/10/31 05:35:12;;;;;;;20.65;14.07;;;7.30;99.90;;;;;;5006866;28;20018;-53
2022/10/31 05:37:38;;;;;;;28.55;15.50;;;7.30;99.90;;;;;;4989844;28;20026;-50
2022/10/31 05:40:05;;;;;;;22.55;13.27;;;7.30;99.90;;;;;;5006472;28;20066;-54
2022/10/31 05:42:31;;;;;;;24.83;15.02;;;7.30;99.90;;;;;;5009155;28;20018;-54
2022/10/31 05:44:57;;;;;;;21.58;14.07;;;7.30;99.90;;;;;;4994746;28;20033;-51
2022/10/31 05:47:22;;;;;;;27.95;15.10;;;7.30;99.90;;;;;;5009027;28;20025;-53
2022/10/31 05:49:48;;;;;;;27.25;15.90;;;7.30;99.90;;;;;;4993458;28;20034;-53
2022/10/31 05:52:14;;;;;;;46.30;13.63;;;7.30;99.90;;;;;;5007640;28;20466;-54
2022/10/31 05:54:39;;;;;;;51.55;16.92;;;7.30;99.90;;;;;;4992055;28;20053;-52
2022/10/31 05:57:05;;;;;;;49.78;16.38;;;7.30;99.90;;;;;;5009009;28;20033;-50
2022/10/31 05:59:30;;;;;;;34.17;15.10;;;7.30;99.90;;;;;;4990946;28;20041;-52
2022/10/31 06:01:56;;;;;;;51.15;16.42;;;7.30;99.90;;;;;;5009123;28;20026;-54
2022/10/31 06:04:21;;;;;;;49.15;18.25;;;7.30;99.90;;;;;;4989262;28;20449;-56
2022/10/31 06:06:47;;;;;;;33.90;16.00;;;7.30;99.90;;;;;;5005839;28;20516;-50
2022/10/31 06:09:12;;;;;;;51.08;16.95;;;7.30;99.90;;;;;;4988067;28;20034;-53
2022/10/31 06:11:38;;;;;;;48.20;18.08;;;7.30;99.90;;;;;;5008761;28;20025;-53
2022/10/31 06:14:04;;;;;;;47.92;17.15;;;7.40;99.90;;;;;;4989727;28;20034;-52
2022/10/31 06:16:29;;;;;;;38.10;16.33;;;7.40;99.90;;;;;;4987133;28;20164;-52
2022/10/31 06:18:55;;;;;;;38.20;16.05;;;7.40;99.90;;;;;;5008248;28;20026;-53
2022/10/31 06:21:20;;;;;;;41.75;16.45;;;7.40;99.90;;;;;;4987636;28;20493;-51
2022/10/31 06:23:46;;;;;;;27.95;13.30;;;7.50;99.90;;;;;;5006725;28;20026;-50
2022/10/31 06:26:11;;;;;;;26.73;15.63;;;7.50;99.90;;;;;;4987654;28;20057;-54
2022/10/31 06:28:37;;;;;;;27.50;16.73;;;7.60;99.90;;;;;;5007959;28;20038;-53
2022/10/31 06:31:02;;;;;;;27.52;16.90;;;7.70;99.90;;;;;;4987539;28;20038;-51
2022/10/31 06:33:28;;;;;;;23.45;13.35;;;7.70;99.90;;;;;;5007690;28;20397;-54
2022/10/31 06:35:53;;;;;;;29.23;15.45;;;7.70;99.90;;;;;;4988755;28;20034;-51
2022/10/31 06:38:19;;;;;;;28.23;17.17;;;7.80;99.90;;;;;;5007571;28;20038;-51
2022/10/31 06:40:44;;;;;;;28.88;15.75;;;7.90;99.90;;;;;;5004079;28;20045;-53
2022/10/31 06:43:11;;;;;;;23.95;14.38;;;7.90;99.90;;;;;;4993280;28;20045;-50
2022/10/31 06:45:36;;;;;;;25.73;15.23;;;8.00;99.90;;;;;;4998679;28;20101;-54
2022/10/31 06:48:02;;;;;;;26.42;15.77;;;8.10;99.90;;;;;;5011508;28;20129;-52
2022/10/31 06:50:28;;;;;;;29.67;16.73;;;8.20;99.90;;;;;;5001945;28;20030;-52
2022/10/31 06:52:55;;;;;;;28.33;14.70;;;8.30;99.90;;;;;;4993073;28;20034;-54
2022/10/31 06:55:22;;;;;;;45.63;15.80;;;8.40;99.90;;;;;;5009975;28;20026;-56
2022/10/31 06:57:59;;;;;;;33.70;15.35;;;8.50;99.90;;;;;;4993131;28;20026;-52
2022/10/31 07:00:26;;;;;;;27.35;13.88;;;8.60;99.90;;;;;;4991438;28;20033;-52
2022/10/31 07:03:00;;;;;;;16.98;12.38;;;8.70;99.90;;;;;;4992977;28;20042;-51
2022/10/31 07:05:27;;;;;;;23.30;13.80;;;8.80;99.90;;;;;;5003679;28;20057;-51
2022/10/31 07:07:54;;;;;;;24.17;13.85;;;8.80;99.90;;;;;;4991398;28;20498;-52
2022/10/31 07:10:20;;;;;;;17.27;11.80;;;8.90;99.90;;;;;;5009598;28;20068;-48
2022/10/31 07:12:46;;;;;;;18.92;13.45;;;9.00;99.90;;;;;;4992806;28;20032;-49
2022/10/31 07:15:11;;;;;;;18.98;13.23;;;9.10;99.90;;;;;;5009254;28;20033;-50
2022/10/31 07:17:36;;;;;;;16.45;11.52;;;9.20;99.90;;;;;;4992945;28;20387;-50
2022/10/31 07:20:02;;;;;;;16.13;11.05;;;9.30;99.90;;;;;;5007684;28;20058;-51
2022/10/31 07:22:37;;;;;;;13.52;10.50;;;9.40;99.90;;;;;;5011682;28;20036;-55
2022/10/31 07:25:03;;;;;;;14.60;10.02;;;9.60;99.90;;;;;;4985088;28;20121;-51
2022/10/31 07:27:34;;;;;;;17.77;11.13;;;9.70;99.90;;;;;;5011807;28;20393;-54
2022/10/31 07:30:00;;;;;;;14.00;10.85;;;9.70;99.90;;;;;;4984378;28;20048;-50
2022/10/31 07:32:25;;;;;;;12.02;9.63;;;9.80;99.90;;;;;;5011703;28;20514;-49
2022/10/31 07:34:51;;;;;;;13.77;10.50;;;9.80;99.90;;;;;;4996168;28;20053;-50
2022/10/31 07:37:16;;;;;;;13.45;10.98;;;9.90;99.90;;;;;;5011299;28;20044;-52
2022/10/31 07:39:42;;;;;;;13.85;11.02;;;10.00;99.90;;;;;;4994939;28;20076;-51
2022/10/31 07:42:07;;;;;;;14.00;10.15;;;10.20;99.90;;;;;;5011360;28;20330;-49
2022/10/31 07:44:32;;;;;;;12.00;10.35;;;10.30;99.90;;;;;;4993725;28;20038;-49
2022/10/31 07:46:58;;;;;;;14.05;10.10;;;10.40;99.90;;;;;;5010628;28;20083;-49
2022/10/31 07:49:25;;;;;;;13.55;10.32;;;10.60;99.90;;;;;;4992331;28;20405;-50
2022/10/31 07:51:50;;;;;;;12.95;10.05;;;10.80;99.90;;;;;;5011181;28;20022;-49
2022/10/31 07:54:16;;;;;;;10.90;8.63;;;11.00;99.90;;;;;;4990937;28;20050;-50
2022/10/31 07:56:41;;;;;;;14.60;9.63;;;11.20;99.90;;;;;;5011348;28;20044;-49
2022/10/31 07:59:07;;;;;;;13.77;8.98;;;11.60;99.90;;;;;;4991910;28;20422;-51
2022/10/31 08:01:32;;;;;;;11.18;9.40;;;11.90;99.90;;;;;;5009365;28;20038;-49
2022/10/31 08:03:58;;;;;;;11.88;8.18;;;12.20;99.90;;;;;;4991760;28;20092;-53
2022/10/31 08:06:23;;;;;;;12.82;8.57;;;12.50;99.90;;;;;;4985841;28;20066;-53
2022/10/31 08:08:49;;;;;;;14.98;7.95;;;12.80;99.90;;;;;;5008907;28;20036;-51
2022/10/31 08:11:14;;;;;;;12.40;9.30;;;13.20;99.90;;;;;;4989907;28;20112;-51
2022/10/31 08:13:40;;;;;;;13.18;9.18;;;13.60;99.90;;;;;;5010180;28;20038;-49
2022/10/31 08:16:07;;;;;;;13.38;8.68;;;13.90;99.90;;;;;;4990113;28;20473;-53
2022/10/31 08:18:32;;;;;;;12.82;8.88;;;14.30;99.90;;;;;;5010410;28;20026;-50
2022/10/31 08:20:58;;;;;;;9.68;7.85;;;14.60;99.90;;;;;;4989622;28;20038;-53
2022/10/31 08:23:23;;;;;;;12.23;8.38;;;15.00;99.90;;;;;;5010035;28;20029;-49
2022/10/31 08:25:49;;;;;;;13.65;7.97;;;15.30;99.90;;;;;;4989823;28;20088;-49
2022/10/31 08:28:15;;;;;;;9.68;7.65;;;15.50;99.90;;;;;;5025497;28;20042;-55
2022/10/31 08:30:41;;;;;;;9.32;7.45;;;15.80;99.90;;;;;;4989771;28;20023;-54
2022/10/31 08:33:13;;;;;;;13.43;8.43;;;16.00;99.90;;;;;;5009585;28;20026;-50
2022/10/31 08:35:40;;;;;;;13.23;8.20;;;16.00;99.90;;;;;;4981390;28;20113;-52
2022/10/31 08:38:07;;;;;;;13.65;7.82;;;16.10;99.90;;;;;;5007492;28;20064;-51
2022/10/31 08:40:34;;;;;;;12.23;8.02;;;16.20;99.90;;;;;;5000431;28;20371;-49
2022/10/31 08:43:03;;;;;;;9.57;7.60;;;16.30;99.90;;;;;;4990966;28;20045;-50
2022/10/31 08:45:29;;;;;;;13.15;8.30;;;16.20;99.90;;;;;;5008102;28;20196;-50
2022/10/31 08:48:04;;;;;;;11.10;7.90;;;16.20;99.90;;;;;;4991038;28;20097;-49
2022/10/31 08:50:31;;;;;;;14.55;9.15;;;16.10;99.90;;;;;;4990835;28;20030;-51
2022/10/31 08:53:04;;;;;;;12.82;8.25;;;16.00;99.90;;;;;;4990718;28;20030;-50
2022/10/31 08:55:29;;;;;;;9.57;7.18;;;15.90;99.90;;;;;;4990592;28;20383;-54
2022/10/31 08:57:56;;;;;;;13.45;7.65;;;15.80;99.90;;;;;;4989228;28;20045;-52
2022/10/31 09:00:22;;;;;;;15.88;10.10;;;15.70;99.90;;;;;;5007338;28;20410;-49
2022/10/31 09:02:48;;;;;;;17.48;8.77;;;15.60;99.90;;;;;;4989362;28;20030;-48
2022/10/31 09:05:13;;;;;;;10.05;7.70;;;15.50;99.90;;;;;;5004095;28;20030;-51
2022/10/31 09:07:39;;;;;;;11.60;8.15;;;15.60;99.90;;;;;;4990567;28;20041;-49
2022/10/31 09:10:05;;;;;;;14.07;9.32;;;15.60;99.90;;;;;;5007247;28;20069;-53
2022/10/31 09:12:30;;;;;;;13.68;9.23;;;15.60;99.90;;;;;;5009597;28;20040;-52
2022/10/31 09:14:55;;;;;;;15.55;9.18;;;15.60;99.90;;;;;;4995181;28;20036;-49
2022/10/31 09:17:21;;;;;;;13.50;8.50;;;15.70;99.90;;;;;;5008236;28;20022;-49
2022/10/31 09:19:46;;;;;;;17.55;8.32;;;15.70;99.90;;;;;;4993716;28;20498;-52
2022/10/31 09:22:12;;;;;;;15.40;8.85;;;15.80;99.90;;;;;;5009542;28;20022;-50
2022/10/31 09:24:37;;;;;;;13.05;9.07;;;15.90;99.90;;;;;;4992206;28;20521;-49
2022/10/31 09:27:03;;;;;;;12.05;8.63;;;15.90;99.90;;;;;;5009896;28;20417;-53
2022/10/31 09:29:28;;;;;;;13.50;9.52;;;16.00;99.90;;;;;;4991013;28;20603;-50
2022/10/31 09:31:56;;;;;;;13.10;8.50;;;16.10;99.90;;;;;;5009448;28;20417;-50
2022/10/31 09:34:21;;;;;;;16.40;8.90;;;16.20;99.90;;;;;;4989613;28;20042;-49
2022/10/31 09:36:47;;;;;;;9.35;7.60;;;16.20;99.90;;;;;;5009447;28;20300;-49
2022/10/31 09:39:12;;;;;;;15.70;8.75;;;16.30;99.90;;;;;;4988530;28;20046;-49
2022/10/31 09:41:51;;;;;;;14.00;8.77;;;16.30;99.90;;;;;;5009106;28;20109;-52
2022/10/31 09:44:51;;;;;;;12.90;8.18;;;16.40;99.90;;;;;;4970300;28;20026;-50
2022/10/31 09:47:40;;;;;;;15.13;8.60;;;16.50;99.90;;;;;;5008916;28;20559;-49
2022/10/31 09:50:33;;;;;;;16.02;8.70;;;16.50;99.90;;;;;;4983154;28;20033;-53
2022/10/31 09:53:04;;;;;;;11.88;8.18;;;16.60;99.90;;;;;;4969824;28;20035;-55
2022/10/31 09:55:40;;;;;;;15.35;9.07;;;16.60;99.90;;;;;;4989727;28;20437;-53
2022/10/31 09:58:15;;;;;;;18.92;10.35;;;16.60;99.90;;;;;;4989269;28;20057;-55
2022/10/31 10:00:41;;;;;;;12.88;8.55;;;16.60;99.90;;;;;;4980191;28;20073;-55
2022/10/31 10:03:28;;;;;;;16.20;9.63;;;16.60;99.90;;;;;;5008340;28;20022;-52
2022/10/31 10:06:06;;;;;;;15.70;9.90;;;16.50;99.90;;;;;;4988604;28;20472;-54
2022/10/31 10:08:33;;;;;;;17.17;8.82;;;16.50;99.90;;;;;;4969865;28;20035;-54
2022/10/31 10:11:26;;;;;;;13.40;8.98;;;16.50;99.90;;;;;;4991391;28;20113;-55
2022/10/31 10:14:12;;;;;;;15.75;9.32;;;16.50;99.90;;;;;;4969773;28;20078;-51
2022/10/31 10:16:53;;;;;;;16.05;9.18;;;16.50;99.90;;;;;;4969934;28;20057;-54
2022/10/31 10:19:31;;;;;;;18.02;9.07;;;16.50;99.90;;;;;;4970092;28;20081;-53
2022/10/31 10:22:20;;;;;;;19.10;10.30;;;16.60;99.90;;;;;;5008695;28;20073;-51
2022/10/31 10:24:58;;;;;;;14.10;8.65;;;16.50;99.90;;;;;;4977213;28;20118;-52
2022/10/31 10:27:37;;;;;;;12.52;8.30;;;16.50;99.90;;;;;;5008864;28;20097;-51
2022/10/31 10:30:11;;;;;;;13.80;8.40;;;16.50;99.90;;;;;;4981965;28;20025;-54
2022/10/31 10:32:44;;;;;;;16.38;9.18;;;16.50;99.90;;;;;;5008538;28;20037;-49
2022/10/31 10:35:37;;;;;;;15.85;9.30;;;16.50;99.90;;;;;;4983617;28;20030;-52
2022/10/31 10:38:32;;;;;;;12.50;8.50;;;16.40;99.90;;;;;;4972537;28;20039;-55
2022/10/31 10:41:01;;;;;;;19.45;10.00;;;16.40;99.90;;;;;;5006632;28;20045;-48
2022/10/31 10:43:30;;;;;;;12.90;8.50;;;16.30;99.90;;;;;;4988688;28;20022;-48
2022/10/31 10:48:57;;;;;;;16.60;9.85;;;16.30;99.90;;;;;;4969588;28;20074;-50
2022/10/31 10:51:51;;;;;;;15.75;9.93;;;16.30;99.90;;;;;;4985315;28;20053;-52
2022/10/31 10:54:47;;;;;;;20.45;9.25;;;16.40;99.90;;;;;;4967415;28;20085;-49
2022/10/31 10:57:18;;;;;;;13.35;8.75;;;16.50;99.90;;;;;;5008548;28;20359;-49
2022/10/31 10:59:45;;;;;;;14.27;8.98;;;16.60;99.90;;;;;;4991625;28;20038;-51
2022/10/31 11:02:23;;;;;;;17.65;8.45;;;16.70;99.90;;;;;;5006908;28;20482;-48
2022/10/31 11:04:54;;;;;;;16.98;9.02;;;16.80;99.90;;;;;;4971974;28;20068;-47
2022/10/31 11:07:20;;;;;;;20.30;10.02;;;16.80;99.90;;;;;;5008373;28;20396;-51
2022/10/31 11:09:46;;;;;;;15.55;9.55;;;16.90;99.90;;;;;;4991863;28;20398;-46
2022/10/31 11:12:26;;;;;;;14.52;9.35;;;17.00;99.90;;;;;;5008335;28;20026;-49
2022/10/31 11:15:17;;;;;;;14.40;8.70;;;17.00;99.90;;;;;;4978373;28;20663;-51
2022/10/31 11:17:46;;;;;;;15.18;8.80;;;17.10;99.90;;;;;;4983496;28;20034;-50
2022/10/31 11:20:12;;;;;;;16.15;9.45;;;17.10;99.90;;;;;;5005917;28;20041;-49
2022/10/31 11:22:37;;;;;;;18.52;10.30;;;17.20;99.90;;;;;;4991298;28;20022;-48
2022/10/31 11:25:23;;;;;;;19.33;9.80;;;17.20;99.90;;;;;;5009038;28;20040;-48
2022/10/31 11:28:09;;;;;;;11.88;7.90;;;17.20;99.90;;;;;;4992418;28;20022;-47
2022/10/31 11:30:47;;;;;;;17.10;8.55;;;17.20;99.90;;;;;;4998122;28;20034;-47
2022/10/31 11:33:36;;;;;;;15.70;8.73;;;17.20;99.90;;;;;;5011547;28;20096;-48
2022/10/31 11:36:18;;;;;;;20.80;9.20;;;17.20;99.90;;;;;;4985869;28;20435;-48
2022/10/31 11:38:44;;;;;;;16.38;9.20;;;17.20;99.90;;;;;;4986436;28;20042;-47
2022/10/31 11:41:12;;;;;;;16.60;10.00;;;17.20;99.90;;;;;;5009973;28;20041;-52
2022/10/31 11:43:40;;;;;;;14.95;8.93;;;17.10;99.90;;;;;;4992075;28;20022;-50
2022/10/31 11:46:18;;;;;;;15.75;9.98;;;17.10;99.90;;;;;;4993348;28;20390;-48
2022/10/31 11:48:49;;;;;;;14.02;9.23;;;17.20;99.90;;;;;;4972494;28;20483;-48
2022/10/31 11:51:21;;;;;;;17.58;9.73;;;17.20;99.90;;;;;;4987335;28;20036;-49
2022/10/31 11:53:53;;;;;;;17.33;9.15;;;17.20;99.90;;;;;;4972150;28;20038;-47
2022/10/31 11:56:18;;;;;;;14.60;9.20;;;17.20;99.90;;;;;;4991395;28;20061;-50
2022/10/31 11:58:56;;;;;;;12.23;7.78;;;17.30;99.90;;;;;;5010276;28;20505;-50
2022/10/31 12:01:29;;;;;;;13.93;8.32;;;17.30;99.90;;;;;;4987798;28;20030;-50
2022/10/31 12:04:06;;;;;;;14.48;8.77;;;17.30;99.90;;;;;;5010417;28;20048;-47
2022/10/31 12:06:37;;;;;;;17.17;9.20;;;17.30;99.90;;;;;;4986433;28;20033;-47
2022/10/31 12:09:22;;;;;;;14.60;9.18;;;17.30;99.90;;;;;;5010409;28;20152;-49
2022/10/31 12:12:07;;;;;;;16.45;8.50;;;17.30;99.90;;;;;;5010718;28;20045;-51
2022/10/31 12:14:46;;;;;;;13.77;7.13;;;17.30;99.90;;;;;;4976238;28;20397;-46
2022/10/31 12:17:19;;;;;;;16.30;8.50;;;17.30;99.90;;;;;;5010658;28;20552;-52
2022/10/31 12:20:00;;;;;;;13.73;8.43;;;17.30;99.90;;;;;;4979261;28;20456;-48
2022/10/31 12:23:00;;;;;;;16.77;9.13;;;17.30;99.90;;;;;;5010854;28;20058;-47
2022/10/31 12:25:31;;;;;;;18.55;8.55;;;17.30;99.90;;;;;;4989872;28;20516;-49
2022/10/31 12:28:10;;;;;;;16.88;7.90;;;17.30;99.90;;;;;;4971436;28;20035;-47
2022/10/31 12:30:46;;;;;;;17.58;9.40;;;17.30;99.90;;;;;;4992818;28;20056;-50
2022/10/31 12:33:24;;;;;;;;;;;17.30;99.90;;;;;;4972086;28;20117;-51
2022/10/31 12:36:05;;;;;;;10.85;7.10;;;17.30;99.90;;;;;;4983366;28;19940;-50
2022/10/31 12:38:47;;;;;;;11.50;8.18;;;17.30;99.90;;;;;;4981752;28;20049;-51
2022/10/31 12:41:40;;;;;;;14.15;8.75;;;17.30;99.90;;;;;;5008851;28;20026;-49
2022/10/31 12:44:36;;;;;;;13.07;8.70;;;17.30;99.90;;;;;;4967010;28;20426;-50
2022/10/31 12:47:44;;;;;;;12.70;7.63;;;17.20;99.90;;;;;;4971215;28;20070;-48
2022/10/31 12:50:47;;;;;;;14.68;7.60;;;17.20;99.90;;;;;;4985498;28;20034;-52
2022/10/31 12:53:18;;;;;;;12.55;7.03;;;17.30;99.90;;;;;;4966777;28;20039;-51
2022/10/31 12:56:02;;;;;;;12.02;7.95;;;17.20;99.90;;;;;;4982017;28;20054;-52
2022/10/31 12:58:39;;;;;;;16.67;7.78;;;17.20;99.90;;;;;;4971191;28;20023;-47